Time;durP1;ratioP1;P1;durP2;ratioP2;P2;SDS_P1;SDS_P2;PMS_P1;PMS_P2;Temp;Humidity;BMP_temperature;BMP_pressure;BME280_temperature;BME280_humidity;BME280_pressure;Samples;Min_cycle;Max_cycle;Signal;HPM_P1;HPM_P2
2023/09/27 00:01:59;;;;;;;29.20;19.40;;;;;;;19.46;62.14;101373.08;107727;1262;60199;-68
2023/09/27 00:04:28;;;;;;;26.20;18.90;;;;;;;19.44;62.12;101372.84;107686;1261;73118;-66
2023/09/27 00:06:55;;;;;;;30.60;20.70;;;;;;;19.46;61.96;101369.70;107693;1257;68792;-66
2023/09/27 00:09:22;;;;;;;29.00;18.80;;;;;;;19.32;62.25;101370.10;107852;1258;72651;-66
2023/09/27 00:11:50;;;;;;;35.10;22.00;;;;;;;19.34;62.22;101368.93;107675;1258;61667;-66
2023/09/27 00:14:17;;;;;;;34.60;22.30;;;;;;;19.33;62.23;101363.83;107678;1257;59484;-66
2023/09/27 00:16:45;;;;;;;27.10;18.60;;;;;;;19.37;62.05;101365.55;107747;1261;71834;-66
2023/09/27 00:19:13;;;;;;;31.80;21.30;;;;;;;19.24;62.39;101357.35;107921;1257;70496;-65
2023/09/27 00:21:41;;;;;;;34.70;20.40;;;;;;;19.26;62.58;101359.04;107735;1262;72674;-66
2023/09/27 00:24:08;;;;;;;30.20;21.00;;;;;;;19.34;62.40;101357.00;107897;1256;61748;-66
2023/09/27 00:26:36;;;;;;;30.80;20.10;;;;;;;19.35;62.35;101354.23;107695;1256;59512;-65
2023/09/27 00:29:03;;;;;;;29.50;18.20;;;;;;;19.38;62.24;101351.97;107739;1256;73975;-65
2023/09/27 00:31:31;;;;;;;29.90;20.60;;;;;;;19.41;62.04;101352.68;107776;1261;69362;-64
2023/09/27 00:33:58;;;;;;;32.10;21.10;;;;;;;19.39;62.06;101351.03;107730;1257;72646;-65
2023/09/27 00:36:25;;;;;;;31.90;20.80;;;;;;;19.33;62.29;101352.98;107742;1256;61683;-65
2023/09/27 00:38:53;;;;;;;33.00;20.90;;;;;;;19.28;62.15;101343.42;107613;1258;60451;-65
2023/09/27 00:41:22;;;;;;;27.20;18.50;;;;;;;19.21;62.38;101345.21;107651;1258;73875;-66
2023/09/27 00:43:50;;;;;;;32.60;20.60;;;;;;;19.11;62.88;101341.50;107764;1257;70138;-67
2023/09/27 00:46:18;;;;;;;32.10;20.50;;;;;;;19.18;62.64;101344.00;107568;1257;71771;-66
2023/09/27 00:48:45;;;;;;;25.30;18.50;;;;;;;19.15;62.74;101345.20;107521;1257;62251;-67
2023/09/27 00:51:13;;;;;;;28.90;19.00;;;;;;;19.18;62.65;101346.79;107660;1257;60416;-66
2023/09/27 00:53:41;;;;;;;27.60;18.50;;;;;;;19.25;62.55;101349.08;107506;1256;74031;-66
2023/09/27 00:56:09;;;;;;;26.50;19.40;;;;;;;19.32;62.39;101350.35;107644;1257;69980;-66
2023/09/27 00:58:37;;;;;;;28.80;19.50;;;;;;;19.04;62.99;101352.86;107750;1262;72499;-65
2023/09/27 01:01:04;;;;;;;26.20;18.80;;;;;;;19.04;62.96;101352.86;107961;1256;61454;-65
2023/09/27 01:03:32;;;;;;;31.40;20.10;;;;;;;19.08;62.57;101353.93;107887;1254;60299;-64
2023/09/27 01:06:00;;;;;;;31.20;20.20;;;;;;;19.01;62.32;101356.40;107872;1259;73801;-64
2023/09/27 01:08:27;;;;;;;29.10;19.10;;;;;;;18.99;62.18;101358.69;107809;1254;70078;-64
2023/09/27 01:10:55;;;;;;;30.30;19.80;;;;;;;18.92;62.31;101356.19;107960;1254;72745;-65
2023/09/27 01:13:23;;;;;;;29.60;19.00;;;;;;;19.01;61.89;101353.55;107938;1254;61689;-66
2023/09/27 01:15:50;;;;;;;29.50;19.60;;;;;;;19.02;61.71;101354.41;107892;1254;60313;-65
2023/09/27 01:18:18;;;;;;;28.90;19.80;;;;;;;18.93;61.75;101353.32;107954;1254;72652;-65
2023/09/27 01:20:46;;;;;;;29.00;19.00;;;;;;;18.85;61.89;101357.08;107971;1254;69915;-65
2023/09/27 01:23:13;;;;;;;27.90;19.40;;;;;;;18.83;61.83;101357.41;107999;1254;72471;-65
2023/09/27 01:25:41;;;;;;;28.70;19.90;;;;;;;18.84;61.56;101358.56;108044;1254;60805;-65
2023/09/27 01:28:09;;;;;;;30.60;18.80;;;;;;;18.75;61.68;101354.90;107928;1254;60310;-64
2023/09/27 01:30:37;;;;;;;28.70;19.20;;;;;;;18.78;61.46;101352.66;108010;1253;73790;-66
2023/09/27 01:33:07;;;;;;;27.70;19.10;;;;;;;18.78;61.27;101349.81;107994;1254;70106;-65
2023/09/27 01:35:39;;;;;;;27.00;18.90;;;;;;;18.75;61.19;101347.65;107958;1254;74768;-65
2023/09/27 01:38:09;;;;;;;29.00;17.90;;;;;;;18.78;61.17;101345.02;107964;1254;60726;-66
2023/09/27 01:40:38;;;;;;;24.90;17.40;;;;;;;18.68;61.51;101345.48;107921;1254;60495;-65
2023/09/27 01:43:06;;;;;;;23.70;17.30;;;;;;;18.69;61.79;101343.87;108002;1254;73776;-66
2023/09/27 01:45:34;;;;;;;26.10;17.50;;;;;;;18.60;62.08;101350.70;107958;1254;70230;-66
2023/09/27 01:48:03;;;;;;;26.70;18.10;;;;;;;18.58;62.20;101349.55;108000;1254;71760;-66
2023/09/27 01:50:32;;;;;;;28.30;18.20;;;;;;;18.54;62.19;101356.35;108021;1253;60393;-66
2023/09/27 01:52:59;;;;;;;21.60;15.80;;;;;;;18.56;62.01;101355.88;108053;1254;60378;-66
2023/09/27 01:55:27;;;;;;;26.40;18.50;;;;;;;18.33;62.57;101350.48;108077;1254;74290;-66
2023/09/27 01:57:55;;;;;;;20.90;15.20;;;;;;;18.29;62.64;101353.69;107958;1254;70871;-66
2023/09/27 02:00:23;;;;;;;29.90;18.70;;;;;;;18.28;62.85;101356.39;107834;1254;72416;-66
2023/09/27 02:02:55;;;;;;;27.10;18.80;;;;;;;18.26;62.83;101356.48;107966;1254;60287;-66
2023/09/27 02:05:24;;;;;;;24.10;16.00;;;;;;;18.32;62.81;101356.94;108012;1254;60114;-66
2023/09/27 02:07:51;;;;;;;27.20;18.10;;;;;;;18.19;63.08;101356.63;108026;1254;73764;-65
2023/09/27 02:10:20;;;;;;;25.90;17.80;;;;;;;18.25;62.68;101356.56;108001;1259;69338;-66
2023/09/27 02:12:47;;;;;;;23.20;16.40;;;;;;;18.34;62.38;101356.85;107950;1260;70461;-65
2023/09/27 02:15:18;;;;;;;29.20;17.80;;;;;;;18.29;62.33;101357.97;107993;1254;62028;-66
2023/09/27 02:17:45;;;;;;;22.80;15.10;;;;;;;18.23;62.28;101358.79;107985;1254;60361;-65
2023/09/27 02:20:14;;;;;;;21.20;15.50;;;;;;;18.25;62.28;101360.48;107964;1254;73812;-65
2023/09/27 02:22:41;;;;;;;23.50;16.70;;;;;;;18.16;62.25;101362.82;107841;1254;70279;-65
2023/09/27 02:25:09;;;;;;;24.00;16.20;;;;;;;18.08;62.49;101367.70;107905;1254;73126;-66
2023/09/27 02:27:37;;;;;;;26.20;17.60;;;;;;;18.03;62.64;101367.44;108076;1254;60451;-65
2023/09/27 02:30:07;;;;;;;23.10;16.20;;;;;;;18.01;62.59;101369.80;108003;1254;59191;-66
2023/09/27 02:32:35;;;;;;;24.50;15.90;;;;;;;18.04;62.50;101370.73;107935;1254;73944;-65
2023/09/27 02:35:04;;;;;;;30.70;18.40;;;;;;;18.09;62.33;101370.31;107962;1254;69439;-66
2023/09/27 02:37:32;;;;;;;22.60;16.40;;;;;;;18.05;62.15;101368.92;107940;1257;70968;-65
2023/09/27 02:39:59;;;;;;;28.80;18.60;;;;;;;17.96;62.30;101370.61;107958;1260;60609;-66
2023/09/27 02:42:27;;;;;;;29.30;17.00;;;;;;;17.77;62.58;101370.93;107993;1254;60423;-66
2023/09/27 02:44:54;;;;;;;21.30;14.30;;;;;;;17.84;62.48;101372.94;107966;1254;72714;-65
2023/09/27 02:47:22;;;;;;;25.50;17.50;;;;;;;17.92;62.20;101375.77;107921;1254;70469;-66
2023/09/27 02:49:49;;;;;;;26.20;15.80;;;;;;;17.98;61.92;101376.50;108032;1254;72776;-66
2023/09/27 02:52:17;;;;;;;25.40;15.70;;;;;;;17.90;62.14;101373.55;107942;1254;60396;-67
2023/09/27 02:54:45;;;;;;;26.30;16.70;;;;;;;17.86;62.15;101371.61;108022;1254;60184;-67
2023/09/27 02:57:13;;;;;;;24.00;16.50;;;;;;;17.82;62.20;101373.20;107972;1254;73926;-66
2023/09/27 02:59:40;;;;;;;29.50;18.00;;;;;;;17.84;62.18;101374.34;107838;1260;69144;-66
2023/09/27 03:02:08;;;;;;;27.00;16.50;;;;;;;17.88;62.09;101376.10;107981;1254;73207;-66
2023/09/27 03:04:36;;;;;;;18.40;14.90;;;;;;;17.86;62.15;101372.84;108007;1254;61705;-66
2023/09/27 03:07:08;;;;;;;30.10;17.40;;;;;;;17.76;62.29;101377.16;107976;1254;60886;-68
2023/09/27 03:09:36;;;;;;;24.40;15.60;;;;;;;17.82;62.29;101376.38;107898;1254;73988;-66
2023/09/27 03:12:04;;;;;;;27.30;17.00;;;;;;;17.88;62.09;101377.36;108024;1255;69762;-66
2023/09/27 03:14:32;;;;;;;23.90;16.30;;;;;;;17.80;62.16;101377.20;107987;1254;71267;-66
2023/09/27 03:17:00;;;;;;;21.90;15.40;;;;;;;17.83;62.07;101377.61;107980;1254;62599;-65
2023/09/27 03:19:28;;;;;;;22.80;16.00;;;;;;;17.71;62.18;101379.53;108097;1254;60501;-66
2023/09/27 03:21:56;;;;;;;21.90;14.90;;;;;;;17.48;62.67;101380.43;107845;1260;73804;-66
2023/09/27 03:24:25;;;;;;;23.90;15.40;;;;;;;17.39;63.06;101386.20;108016;1254;70352;-65
2023/09/27 03:26:53;;;;;;;23.20;15.80;;;;;;;17.44;62.92;101381.00;108072;1254;75023;-66
2023/09/27 03:29:20;;;;;;;22.30;16.00;;;;;;;17.39;63.09;101382.27;108036;1254;61681;-67
2023/09/27 03:31:48;;;;;;;29.40;16.50;;;;;;;17.35;63.16;101382.24;107992;1254;60242;-66
2023/09/27 03:34:15;;;;;;;23.30;16.80;;;;;;;17.35;63.03;101379.79;108090;1253;73868;-66
2023/09/27 03:36:44;;;;;;;24.20;17.20;;;;;;;17.50;62.67;101380.70;107985;1253;69349;-66
2023/09/27 03:39:11;;;;;;;25.30;16.20;;;;;;;17.54;62.13;101380.34;107984;1253;72455;-66
2023/09/27 03:41:39;;;;;;;27.00;17.00;;;;;;;17.49;62.08;101383.62;107952;1254;60604;-65
2023/09/27 03:44:06;;;;;;;24.40;16.50;;;;;;;17.49;61.97;101381.82;108072;1254;60290;-66
2023/09/27 03:46:34;;;;;;;25.70;16.50;;;;;;;17.39;62.09;101381.73;107971;1253;73832;-66
2023/09/27 03:49:01;;;;;;;19.80;13.90;;;;;;;17.35;62.39;101382.97;108029;1253;68226;-66
2023/09/27 03:51:29;;;;;;;22.40;15.80;;;;;;;17.25;62.66;101381.48;107973;1254;72484;-66
2023/09/27 03:53:56;;;;;;;19.50;14.30;;;;;;;17.33;62.28;101384.30;108030;1253;60390;-66
2023/09/27 03:56:24;;;;;;;23.40;15.90;;;;;;;17.35;62.17;101383.33;108062;1257;60319;-66
2023/09/27 03:58:51;;;;;;;24.50;16.20;;;;;;;17.38;62.06;101384.44;107822;1253;72063;-66
2023/09/27 04:01:19;;;;;;;22.00;14.90;;;;;;;17.46;61.76;101390.14;108046;1253;69039;-66
2023/09/27 04:03:47;;;;;;;23.10;15.90;;;;;;;17.40;61.84;101389.67;108071;1257;72592;-66
2023/09/27 04:06:15;;;;;;;24.40;15.00;;;;;;;17.40;61.82;101386.33;108055;1253;64040;-66
2023/09/27 04:08:42;;;;;;;21.10;14.90;;;;;;;17.31;62.27;101386.55;108084;1254;60549;-66
2023/09/27 04:11:10;;;;;;;22.00;15.80;;;;;;;17.37;62.13;101384.81;108086;1253;73848;-67
2023/09/27 04:13:37;;;;;;;20.20;14.30;;;;;;;17.41;62.08;101389.11;108081;1253;69181;-67
2023/09/27 04:16:05;;;;;;;22.60;15.80;;;;;;;17.46;62.04;101385.69;108118;1253;73159;-65
2023/09/27 04:18:32;;;;;;;21.90;15.60;;;;;;;17.54;61.82;101387.44;108099;1253;60519;-66
2023/09/27 04:21:10;;;;;;;22.00;15.70;;;;;;;17.66;61.98;101383.89;108105;1253;60316;-66
2023/09/27 04:23:38;;;;;;;25.10;15.10;;;;;;;17.96;62.19;101383.72;108111;1253;73876;-65
2023/09/27 04:26:06;;;;;;;21.20;14.50;;;;;;;18.30;61.91;101381.02;108092;1254;70055;-66
2023/09/27 04:28:33;;;;;;;17.00;12.10;;;;;;;18.52;62.06;101382.24;108029;1258;72679;-66
2023/09/27 04:31:01;;;;;;;18.00;13.00;;;;;;;18.43;61.91;101385.33;108039;1253;60396;-66
2023/09/27 04:33:29;;;;;;;17.10;12.90;;;;;;;18.32;61.50;101380.05;108039;1253;60841;-66
2023/09/27 04:35:57;;;;;;;19.60;13.00;;;;;;;18.54;60.66;101385.00;107934;1253;72652;-67
2023/09/27 04:38:24;;;;;;;21.50;14.00;;;;;;;18.50;60.28;101383.60;108074;1253;69016;-67
2023/09/27 04:40:52;;;;;;;19.10;11.30;;;;;;;18.58;60.25;101383.32;108036;1253;72477;-67
2023/09/27 04:43:20;;;;;;;21.10;13.30;;;;;;;18.73;59.83;101387.23;108043;1253;61734;-66
2023/09/27 04:45:49;;;;;;;17.40;11.80;;;;;;;18.99;60.10;101385.88;108027;1253;60687;-67
2023/09/27 04:48:17;;;;;;;18.90;12.50;;;;;;;19.66;60.02;101386.77;108026;1253;73860;-67
2023/09/27 04:50:44;;;;;;;17.10;11.60;;;;;;;20.27;59.70;101383.20;107956;1253;69565;-67
2023/09/27 04:53:12;;;;;;;22.70;11.00;;;;;;;20.87;59.11;101380.71;108068;1253;72676;-67
2023/09/27 04:55:40;;;;;;;29.70;12.30;;;;;;;21.51;58.12;101384.16;108104;1258;61756;-66
2023/09/27 04:58:07;;;;;;;21.80;10.10;;;;;;;22.14;56.13;101382.24;108015;1253;60442;-66
2023/09/27 05:00:34;;;;;;;15.60;9.90;;;;;;;22.58;54.96;101378.64;108052;1253;73829;-65
2023/09/27 05:03:02;;;;;;;18.50;10.20;;;;;;;22.87;53.65;101381.84;108010;1253;70030;-67
2023/09/27 05:05:30;;;;;;;18.80;9.40;;;;;;;23.32;52.72;101380.00;107990;1258;72429;-66
2023/09/27 05:07:57;;;;;;;12.90;9.30;;;;;;;23.93;51.61;101386.05;108028;1253;60410;-66
2023/09/27 05:10:25;;;;;;;13.90;8.30;;;;;;;24.54;49.96;101384.16;108070;1254;60309;-66
2023/09/27 05:12:52;;;;;;;15.30;7.60;;;;;;;25.20;48.68;101387.55;107993;1253;72954;-67
2023/09/27 05:15:19;;;;;;;14.30;7.80;;;;;;;25.75;47.44;101386.08;108027;1258;70139;-66
2023/09/27 05:17:47;;;;;;;16.80;7.90;;;;;;;26.20;46.11;101383.33;108044;1258;72731;-67
2023/09/27 05:20:15;;;;;;;16.40;7.90;;;;;;;26.61;44.72;101377.34;107816;1260;60829;-67
2023/09/27 05:22:43;;;;;;;16.00;6.70;;;;;;;27.00;43.61;101379.39;108072;1253;60313;-68
2023/09/27 05:25:11;;;;;;;18.70;7.20;;;;;;;27.46;43.19;101382.48;108097;1253;72578;-68
2023/09/27 05:27:39;;;;;;;18.10;7.50;;;;;;;27.91;41.70;101381.49;108060;1254;70651;-68
2023/09/27 05:30:14;;;;;;;22.30;7.60;;;;;;;28.23;41.25;101382.95;108051;1253;72684;-67
2023/09/27 05:32:42;;;;;;;8.40;6.80;;;;;;;28.56;40.30;101382.16;108037;1256;61697;-68
2023/09/27 05:35:10;;;;;;;34.80;8.50;;;;;;;28.86;39.67;101382.48;108049;1253;60419;-67
2023/09/27 05:37:38;;;;;;;25.40;7.80;;;;;;;29.26;38.83;101383.77;108065;1253;73896;-66
2023/09/27 05:40:09;;;;;;;18.80;7.40;;;;;;;29.61;38.29;101384.19;108139;1253;70466;-67
2023/09/27 05:42:37;;;;;;;;;;;;;;;29.91;37.68;101383.38;108197;1253;71400;-67
2023/09/27 05:45:05;;;;;;;10.70;6.20;;;;;;;30.32;36.67;101384.23;108042;1253;60316;-67
2023/09/27 05:47:32;;;;;;;15.80;6.60;;;;;;;30.59;36.30;101382.89;108125;1253;60204;-68
2023/09/27 05:50:00;;;;;;;19.60;7.50;;;;;;;30.82;35.60;101383.84;108134;1253;72689;-69
2023/09/27 05:52:28;;;;;;;10.90;6.60;;;;;;;30.96;35.20;101385.17;108143;1253;69030;-67
2023/09/27 05:54:56;;;;;;;12.20;6.20;;;;;;;31.04;35.09;101388.92;108117;1257;72445;-67
2023/09/27 05:57:24;;;;;;;10.30;5.70;;;;;;;31.22;34.57;101389.13;108041;1253;60941;-68
2023/09/27 05:59:51;;;;;;;9.10;6.20;;;;;;;31.36;34.56;101388.36;108065;1253;60371;-68
2023/09/27 06:02:20;;;;;;;10.10;6.10;;;;;;;31.57;33.95;101388.50;108131;1253;72741;-68
2023/09/27 06:04:47;;;;;;;8.30;5.90;;;;;;;31.82;33.44;101395.10;108132;1253;70832;-68
2023/09/27 06:07:17;;;;;;;13.50;6.50;;;;;;;32.08;33.21;101399.99;108119;1253;72777;-68
2023/09/27 06:09:44;;;;;;;12.30;6.40;;;;;;;32.38;32.94;101397.60;108075;1253;60419;-67
2023/09/27 06:12:12;;;;;;;9.30;5.80;;;;;;;32.69;32.34;101400.60;108060;1257;60224;-68
2023/09/27 06:14:41;;;;;;;15.30;6.00;;;;;;;32.95;31.82;101396.34;108036;1257;72837;-67
2023/09/27 06:17:10;;;;;;;13.50;7.40;;;;;;;33.20;31.42;101399.18;108107;1255;70118;-67
2023/09/27 06:19:37;;;;;;;12.80;6.40;;;;;;;33.28;31.51;101399.48;108085;1253;71372;-68
2023/09/27 06:22:05;;;;;;;9.80;6.50;;;;;;;33.35;31.02;101398.11;108085;1252;60408;-68
2023/09/27 06:24:32;;;;;;;15.40;7.00;;;;;;;33.55;30.85;101398.89;108152;1253;60271;-69
2023/09/27 06:27:00;;;;;;;17.20;7.20;;;;;;;33.56;30.06;101400.34;108111;1253;73778;-68
2023/09/27 06:29:27;;;;;;;15.00;7.10;;;;;;;33.26;30.24;101406.20;108052;1253;69905;-68
2023/09/27 06:31:56;;;;;;;13.40;7.00;;;;;;;32.91;30.64;101409.59;108035;1254;73626;-68
2023/09/27 06:34:24;;;;;;;11.10;7.00;;;;;;;32.75;31.00;101410.83;108082;1257;60335;-67
2023/09/27 06:36:54;;;;;;;11.60;6.80;;;;;;;32.85;31.18;101411.29;108086;1253;60302;-68
2023/09/27 06:39:24;;;;;;;14.70;6.90;;;;;;;33.27;30.78;101405.16;108179;1253;74190;-67
2023/09/27 06:41:52;;;;;;;;;;;;;;;33.66;30.56;101404.70;108154;1253;69541;-68
2023/09/27 06:44:20;;;;;;;12.00;6.80;;;;;;;34.07;29.73;101413.84;108062;1253;72933;-68
2023/09/27 06:46:49;;;;;;;16.60;6.10;;;;;;;34.16;29.63;101413.03;108075;1253;58953;-68
2023/09/27 06:49:16;;;;;;;11.90;6.90;;;;;;;34.57;29.08;101410.27;108085;1252;61332;-68
2023/09/27 06:51:44;;;;;;;13.60;6.70;;;;;;;34.87;28.85;101408.97;108085;1253;63690;-68
2023/09/27 06:54:11;;;;;;;11.30;6.10;;;;;;;34.97;28.57;101406.75;108194;1252;61513;-68
2023/09/27 06:56:40;;;;;;;9.20;5.90;;;;;;;35.31;28.53;101410.30;108170;1253;63748;-69
2023/09/27 06:59:08;;;;;;;14.60;7.00;;;;;;;35.94;27.98;101411.98;108088;1253;60246;-67
2023/09/27 07:01:35;;;;;;;17.60;6.70;;;;;;;36.29;27.36;101411.65;108082;1253;60606;-67
2023/09/27 07:04:04;;;;;;;15.80;6.60;;;;;;;36.55;26.96;101409.25;108129;1252;67078;-69
2023/09/27 07:06:32;;;;;;;10.60;6.30;;;;;;;36.66;26.76;101414.21;108080;1253;60789;-68
2023/09/27 07:08:59;;;;;;;12.50;6.40;;;;;;;36.98;26.64;101414.86;108109;1252;64230;-67
2023/09/27 07:11:27;;;;;;;9.60;5.90;;;;;;;37.26;26.27;101410.46;108164;1252;60601;-69
2023/09/27 07:13:55;;;;;;;8.90;5.90;;;;;;;37.44;25.86;101408.73;108107;1253;60337;-69
2023/09/27 07:16:28;;;;;;;15.60;6.40;;;;;;;37.66;25.78;101407.86;108060;1256;73270;-67
2023/09/27 07:18:56;;;;;;;13.90;6.40;;;;;;;38.02;25.44;101409.60;108156;1253;61647;-68
2023/09/27 07:21:24;;;;;;;14.80;6.70;;;;;;;38.19;25.14;101412.88;108029;1252;62476;-68
2023/09/27 07:23:52;;;;;;;20.90;7.30;;;;;;;38.22;25.01;101409.75;108168;1252;60411;-68
2023/09/27 07:26:20;;;;;;;14.30;6.50;;;;;;;38.17;24.96;101410.17;108168;1252;60317;-69
2023/09/27 07:28:47;;;;;;;14.20;7.00;;;;;;;38.09;25.08;101413.02;108114;1253;64280;-69
2023/09/27 07:31:16;;;;;;;16.70;7.00;;;;;;;38.18;25.00;101415.33;108195;1253;60448;-68
2023/09/27 07:33:45;;;;;;;11.20;7.10;;;;;;;38.26;24.99;101418.39;108126;1253;62743;-68
2023/09/27 07:36:13;;;;;;;19.20;6.70;;;;;;;38.34;24.57;101416.25;108133;1253;60335;-69
2023/09/27 07:38:40;;;;;;;13.50;7.10;;;;;;;38.37;24.88;101418.58;108089;1253;60182;-68
2023/09/27 07:41:10;;;;;;;11.80;6.00;;;;;;;38.66;24.52;101415.84;108093;1253;74079;-67
2023/09/27 07:43:38;;;;;;;;;;;;;;;38.99;24.08;101417.32;108162;1253;60327;-67
2023/09/27 07:46:06;;;;;;;15.80;7.40;;;;;;;39.20;23.77;101412.92;108130;1253;63838;-68
2023/09/27 07:48:39;;;;;;;12.40;6.80;;;;;;;39.37;23.42;101414.52;108073;1253;60425;-69
2023/09/27 07:51:11;;;;;;;13.80;6.80;;;;;;;39.28;23.40;101413.98;108070;1253;60316;-68
2023/09/27 07:53:39;;;;;;;9.80;5.70;;;;;;;39.22;23.58;101410.71;108098;1253;63680;-68
2023/09/27 07:56:09;;;;;;;15.30;6.30;;;;;;;39.52;23.65;101408.95;108052;1253;61755;-69
2023/09/27 07:58:40;;;;;;;13.00;6.40;;;;;;;39.98;22.86;101406.04;108061;1252;63815;-69
2023/09/27 08:01:09;;;;;;;18.00;7.10;;;;;;;40.01;22.52;101405.37;108070;1253;60434;-69
2023/09/27 08:03:38;;;;;;;13.70;6.30;;;;;;;39.72;22.72;101405.84;108143;1253;60352;-69
2023/09/27 08:06:07;;;;;;;11.20;6.50;;;;;;;39.44;22.97;101405.73;108135;1257;65175;-68
2023/09/27 08:08:35;;;;;;;11.10;6.40;;;;;;;39.37;22.98;101402.30;108075;1253;61385;-69
2023/09/27 08:11:03;;;;;;;19.50;7.00;;;;;;;39.18;23.14;101403.27;108026;1253;63778;-69
2023/09/27 08:13:31;;;;;;;14.00;7.00;;;;;;;38.84;23.48;101405.08;108066;1257;60320;-69
2023/09/27 08:15:59;;;;;;;12.40;6.40;;;;;;;38.53;23.69;101407.60;108072;1253;60345;-69
2023/09/27 08:18:26;;;;;;;15.20;7.20;;;;;;;38.35;23.99;101404.20;108039;1253;65244;-68
2023/09/27 08:20:55;;;;;;;15.90;6.70;;;;;;;38.09;24.10;101403.37;108021;1253;60268;-69
2023/09/27 08:23:22;;;;;;;11.60;6.30;;;;;;;37.93;24.43;101401.30;108017;1253;63733;-69
2023/09/27 08:25:51;;;;;;;11.70;6.60;;;;;;;38.24;24.34;101401.73;108053;1253;60338;-69
2023/09/27 08:28:23;;;;;;;15.10;6.70;;;;;;;38.49;24.10;101398.63;107808;1253;60340;-69
2023/09/27 08:30:50;;;;;;;13.60;6.80;;;;;;;38.92;23.62;101395.20;108092;1253;66027;-69
2023/09/27 08:33:17;;;;;;;12.20;6.90;;;;;;;39.14;23.33;101392.04;108012;1253;61702;-70
2023/09/27 08:35:45;;;;;;;10.60;6.60;;;;;;;39.42;23.19;101391.11;108026;1253;62970;-69
2023/09/27 08:38:13;;;;;;;8.20;5.60;;;;;;;39.87;22.74;101392.23;107760;1256;59171;-69
2023/09/27 08:40:40;;;;;;;11.50;6.20;;;;;;;40.28;22.05;101391.20;107888;1253;216891;-68
2023/09/27 08:44:15;;;;;;;16.10;7.00;;;;;;;38.70;23.80;101388.94;104939;1289;600442;-69
2023/09/27 08:46:42;;;;;;;17.30;6.90;;;;;;;39.09;23.11;101383.92;107327;1264;59281;-69
2023/09/27 08:49:10;;;;;;;11.30;6.10;;;;;;;39.06;22.93;101384.17;107350;1266;59100;-69
2023/09/27 08:51:38;;;;;;;11.10;6.30;;;;;;;38.66;23.40;101384.20;107279;1264;63393;-69
2023/09/27 08:54:06;;;;;;;17.90;6.90;;;;;;;38.30;23.87;101382.77;107376;1264;60324;-68
2023/09/27 08:56:33;;;;;;;10.70;6.30;;;;;;;38.45;23.96;101382.33;107355;1265;62783;-70
2023/09/27 08:59:01;;;;;;;17.50;6.80;;;;;;;38.61;23.81;101380.10;107292;1266;198258;-69
2023/09/27 09:01:32;;;;;;;12.00;6.00;;;;;;;38.48;23.75;101381.92;107452;1266;59291;-68
2023/09/27 09:04:00;;;;;;;14.50;6.70;;;;;;;38.42;23.85;101381.98;107434;1263;64059;-69
2023/09/27 09:06:28;;;;;;;12.90;6.50;;;;;;;38.27;24.03;101380.44;107425;1263;60463;-68
2023/09/27 09:08:56;;;;;;;9.40;5.90;;;;;;;38.58;23.80;101375.94;107475;1262;64022;-68
2023/09/27 09:11:23;;;;;;;11.10;6.00;;;;;;;38.96;23.61;101374.20;107419;1263;59526;-68
2023/09/27 09:13:54;;;;;;;20.90;7.20;;;;;;;39.40;23.03;101372.40;107405;1262;59544;-68
2023/09/27 09:16:23;;;;;;;15.00;6.70;;;;;;;39.44;22.69;101372.19;107417;1263;66492;-69
2023/09/27 09:18:52;;;;;;;12.50;6.20;;;;;;;39.13;23.06;101367.80;107452;1264;71421;-69
2023/09/27 09:21:25;;;;;;;14.90;6.10;;;;;;;39.14;23.53;101369.12;107472;1264;62556;-68
2023/09/27 09:23:53;;;;;;;9.50;5.60;;;;;;;39.20;23.55;101367.63;107427;1263;59507;-68
2023/09/27 09:26:28;;;;;;;9.90;5.60;;;;;;;39.37;23.08;101372.77;107418;1263;59192;-68
2023/09/27 09:28:57;;;;;;;8.80;5.60;;;;;;;39.58;22.71;101368.86;107420;1263;65167;-70
2023/09/27 09:31:30;;;;;;;14.50;5.60;;;;;;;39.72;22.57;101370.79;107323;1266;61546;-69
2023/09/27 09:34:05;;;;;;;15.80;6.50;;;;;;;39.67;22.29;101366.80;107274;1267;65967;-68
2023/09/27 09:36:34;;;;;;;10.00;5.70;;;;;;;39.53;22.58;101366.46;107310;1266;59777;-69
2023/09/27 09:39:14;;;;;;;12.70;5.70;;;;;;;39.41;22.62;101362.23;107338;1265;59732;-68
2023/09/27 09:41:49;;;;;;;12.40;6.10;;;;;;;39.03;22.97;101360.36;107292;1265;64216;-67
2023/09/27 09:44:21;;;;;;;16.30;6.30;;;;;;;38.52;23.33;101359.95;107341;1266;61639;-67
2023/09/27 09:46:49;;;;;;;12.10;6.20;;;;;;;38.10;23.62;101361.36;107296;1266;74852;-68
2023/09/27 09:49:16;;;;;;;15.40;6.10;;;;;;;38.11;24.01;101361.63;107318;1266;61191;-68
2023/09/27 09:51:48;;;;;;;12.30;6.00;;;;;;;38.27;23.65;101355.85;107325;1265;59963;-69
2023/09/27 09:54:22;;;;;;;19.10;6.40;;;;;;;38.61;23.56;101351.85;107318;1265;64163;-68
2023/09/27 09:56:50;;;;;;;13.30;6.20;;;;;;;39.08;23.09;101351.95;107262;1266;62261;-68
2023/09/27 09:59:51;;;;;;;11.40;5.90;;;;;;;38.96;23.04;101349.91;107360;1266;62511;-69
2023/09/27 10:02:23;;;;;;;14.60;6.30;;;;;;;38.88;23.30;101348.86;107397;1263;59509;-68
2023/09/27 10:04:55;;;;;;;13.20;6.30;;;;;;;39.16;23.12;101343.98;107446;1262;59163;-69
2023/09/27 10:07:24;;;;;;;13.50;5.80;;;;;;;39.16;23.01;101340.89;107446;1261;64141;-68
2023/09/27 10:09:52;;;;;;;9.10;5.70;;;;;;;39.09;22.99;101334.77;107426;1263;70661;-68
2023/09/27 10:12:21;;;;;;;12.20;5.70;;;;;;;39.43;22.80;101336.79;107415;1262;64021;-68
2023/09/27 10:14:48;;;;;;;10.80;5.20;;;;;;;40.17;22.22;101333.22;107506;1263;59535;-68
2023/09/27 10:17:24;;;;;;;18.80;5.70;;;;;;;40.81;21.61;101334.11;107403;1261;59525;-69
2023/09/27 10:20:15;;;;;;;13.70;5.90;;;;;;;41.25;20.73;101328.20;107512;1262;64112;-67
2023/09/27 10:22:46;;;;;;;17.90;6.00;;;;;;;41.01;20.72;101328.55;107791;1260;60944;-68
2023/09/27 10:25:22;;;;;;;14.70;5.80;;;;;;;40.49;21.13;101328.23;107709;1257;62479;-68
2023/09/27 10:27:59;;;;;;;12.70;5.90;;;;;;;40.08;21.72;101330.20;107904;1256;59640;-67
2023/09/27 10:30:48;;;;;;;12.00;5.10;;;;;;;39.73;21.91;101327.10;107928;1256;59541;-68
2023/09/27 10:33:15;;;;;;;7.80;5.60;;;;;;;39.58;21.83;101324.51;108087;1254;62863;-68
2023/09/27 10:35:44;;;;;;;9.00;5.30;;;;;;;39.68;21.78;101322.13;108190;1254;61488;-67
2023/09/27 10:38:12;;;;;;;13.10;5.50;;;;;;;39.69;21.84;101318.77;108082;1254;64604;-68
2023/09/27 10:40:50;;;;;;;10.50;6.00;;;;;;;39.47;22.21;101316.77;108152;1254;62362;-67
2023/09/27 10:43:40;;;;;;;11.70;5.00;;;;;;;39.66;22.27;101314.98;108096;1253;59669;-67
2023/09/27 10:46:08;;;;;;;10.00;4.90;;;;;;;39.93;22.00;101313.30;108209;1254;62960;-67
2023/09/27 10:48:37;;;;;;;11.80;4.90;;;;;;;40.04;21.56;101313.34;108280;1253;61387;-66
2023/09/27 10:51:05;;;;;;;12.10;4.80;;;;;;;40.06;21.27;101314.47;108049;1253;63376;-67
2023/09/27 10:53:32;;;;;;;10.90;4.90;;;;;;;40.10;20.95;101311.35;108122;1254;59532;-67
2023/09/27 10:56:00;;;;;;;12.90;4.70;;;;;;;39.93;20.97;101312.95;108121;1256;59750;-67
2023/09/27 10:58:27;;;;;;;15.00;5.60;;;;;;;39.89;21.09;101305.02;108188;1253;63457;-71
2023/09/27 11:00:56;;;;;;;10.80;5.00;;;;;;;39.83;21.18;101300.63;108192;1254;61388;-68
2023/09/27 11:03:30;;;;;;;10.20;4.70;;;;;;;39.59;21.46;101299.41;108217;1253;75298;-68
2023/09/27 11:06:08;;;;;;;14.30;4.90;;;;;;;39.49;22.08;101297.73;108272;1254;59492;-67
2023/09/27 11:08:36;;;;;;;12.20;5.00;;;;;;;39.77;22.09;101298.23;108215;1253;59503;-69
2023/09/27 11:11:07;;;;;;;17.00;5.20;;;;;;;40.33;21.13;101293.98;108153;1252;75578;-69
2023/09/27 11:13:35;;;;;;;9.10;4.60;;;;;;;40.58;20.64;101292.02;108239;1254;61835;-68
2023/09/27 11:16:09;;;;;;;11.20;4.60;;;;;;;40.52;20.71;101293.00;108236;1253;63568;-69